createdAt,value
2022-09-27T00:00:32.928Z,0
2022-09-27T00:01:32.921Z,0
2022-09-27T00:02:32.639Z,0
2022-09-27T00:03:32.877Z,0
2022-09-27T00:04:32.851Z,0
2022-09-27T00:05:32.887Z,0
2022-09-27T00:06:32.570Z,0
2022-09-27T00:07:32.923Z,0
2022-09-27T00:08:32.868Z,0
2022-09-27T00:09:32.907Z,0
2022-09-27T00:10:32.536Z,0
2022-09-27T00:11:32.881Z,0
2022-09-27T00:12:32.878Z,0
2022-09-27T00:13:32.883Z,0
2022-09-27T00:14:32.574Z,0
2022-09-27T00:15:32.955Z,0
2022-09-27T00:16:32.868Z,0
2022-09-27T00:17:32.883Z,0
2022-09-27T00:18:32.564Z,0
2022-09-27T00:19:32.915Z,0
2022-09-27T00:20:32.878Z,0
2022-09-27T00:21:32.885Z,0
2022-09-27T00:22:32.512Z,0
2022-09-27T00:23:32.901Z,0
2022-09-27T00:24:32.862Z,0
2022-09-27T00:25:32.866Z,0
2022-09-27T00:26:32.505Z,0
2022-09-27T00:27:32.851Z,0
2022-09-27T00:28:32.851Z,0
2022-09-27T00:29:32.874Z,0
2022-09-27T00:30:32.540Z,0
2022-09-27T00:31:32.947Z,0
2022-09-27T00:32:32.864Z,0
2022-09-27T00:33:32.893Z,0
2022-09-27T00:34:32.547Z,0
2022-09-27T00:35:33.040Z,0
2022-09-27T00:36:32.887Z,0
2022-09-27T00:37:32.901Z,0
2022-09-27T00:38:32.559Z,0
2022-09-27T00:39:32.886Z,0
2022-09-27T00:40:32.886Z,0
2022-09-27T00:41:32.879Z,0
2022-09-27T00:42:32.557Z,0
2022-09-27T00:43:32.881Z,0
2022-09-27T00:44:32.838Z,0
2022-09-27T00:45:32.872Z,0
2022-09-27T00:46:32.803Z,0
2022-09-27T00:47:32.875Z,0
2022-09-27T00:48:32.864Z,0
2022-09-27T00:49:32.890Z,0
2022-09-27T00:50:32.510Z,0
2022-09-27T00:51:32.875Z,0
2022-09-27T00:52:32.873Z,0
2022-09-27T00:53:32.887Z,0
2022-09-27T00:54:32.510Z,0
2022-09-27T00:55:32.877Z,0
2022-09-27T00:56:32.856Z,0
2022-09-27T00:57:32.885Z,0
2022-09-27T00:58:32.487Z,0
2022-09-27T00:59:32.898Z,0
2022-09-27T01:00:32.875Z,0
2022-09-27T01:01:32.955Z,0
2022-09-27T01:02:32.599Z,0
2022-09-27T01:03:32.917Z,0
2022-09-27T01:04:32.863Z,0
2022-09-27T01:05:32.914Z,0
2022-09-27T01:06:32.505Z,0
2022-09-27T01:07:32.875Z,0
2022-09-27T01:08:32.860Z,0
2022-09-27T01:09:32.890Z,0
2022-09-27T01:10:32.564Z,0
2022-09-27T01:11:32.870Z,0
2022-09-27T01:12:32.851Z,0
2022-09-27T01:13:32.874Z,0
2022-09-27T01:14:32.534Z,0
2022-09-27T01:15:32.908Z,0
2022-09-27T01:16:32.878Z,0
2022-09-27T01:17:32.893Z,0
2022-09-27T01:18:32.491Z,0
2022-09-27T01:19:32.875Z,0
2022-09-27T01:20:32.827Z,0
2022-09-27T01:21:32.881Z,0
2022-09-27T01:22:32.501Z,0
2022-09-27T01:23:32.876Z,0
2022-09-27T01:24:32.859Z,0
2022-09-27T01:25:32.871Z,0
2022-09-27T01:26:32.458Z,0
2022-09-27T01:27:32.893Z,0
2022-09-27T01:28:32.881Z,0
2022-09-27T01:29:32.867Z,0
2022-09-27T01:30:32.430Z,0
2022-09-27T01:31:32.989Z,0
2022-09-27T01:32:32.854Z,0
2022-09-27T01:33:32.950Z,0
2022-09-27T01:34:32.493Z,0
2022-09-27T01:35:32.905Z,0
2022-09-27T01:36:32.887Z,0
2022-09-27T01:37:32.865Z,0
2022-09-27T01:38:32.459Z,0
2022-09-27T01:39:32.850Z,0
2022-09-27T01:40:33.046Z,0
2022-09-27T01:41:32.986Z,0
2022-09-27T01:42:32.542Z,0
2022-09-27T01:43:33.009Z,0
2022-09-27T01:44:33.028Z,0
2022-09-27T01:45:32.999Z,0
2022-09-27T01:46:32.651Z,0
2022-09-27T01:47:33.000Z,0
2022-09-27T01:48:32.983Z,0
2022-09-27T01:49:32.870Z,0
2022-09-27T01:50:32.426Z,0
2022-09-27T01:51:32.852Z,0
2022-09-27T01:52:32.870Z,0
2022-09-27T01:53:32.856Z,0
2022-09-27T01:54:32.432Z,0
2022-09-27T01:55:32.861Z,0
2022-09-27T01:56:32.875Z,0
2022-09-27T01:57:32.870Z,0
2022-09-27T01:58:32.499Z,0
2022-09-27T01:59:32.877Z,0
2022-09-27T02:00:32.859Z,0
2022-09-27T02:01:32.895Z,0
2022-09-27T02:02:32.454Z,0
2022-09-27T02:03:32.865Z,0
2022-09-27T02:04:32.859Z,0
2022-09-27T02:05:32.859Z,0
2022-09-27T02:06:32.397Z,0
2022-09-27T02:07:32.876Z,0
2022-09-27T02:08:32.872Z,0
2022-09-27T02:09:32.866Z,0
2022-09-27T02:10:32.436Z,0
2022-09-27T02:11:32.870Z,0
2022-09-27T02:12:32.924Z,0
2022-09-27T02:13:32.854Z,0
2022-09-27T02:14:32.398Z,0
2022-09-27T02:15:32.900Z,0
2022-09-27T02:16:32.867Z,0
2022-09-27T02:17:32.851Z,0
2022-09-27T02:18:32.366Z,0
2022-09-27T02:19:32.862Z,0
2022-09-27T02:20:32.858Z,0
2022-09-27T02:21:32.837Z,0
2022-09-27T02:22:32.410Z,0
2022-09-27T02:23:32.863Z,0
2022-09-27T02:24:32.876Z,0
2022-09-27T02:25:32.845Z,0
2022-09-27T02:26:32.463Z,0
2022-09-27T02:27:32.883Z,0
2022-09-27T02:28:32.882Z,0
2022-09-27T02:29:32.846Z,0
2022-09-27T02:30:32.444Z,0
2022-09-27T02:31:33.049Z,0
2022-09-27T02:32:32.857Z,0
2022-09-27T02:33:32.862Z,0
2022-09-27T02:34:32.329Z,0
2022-09-27T02:35:32.864Z,0
2022-09-27T02:36:32.864Z,0
2022-09-27T02:37:32.878Z,0
2022-09-27T02:38:32.376Z,0
2022-09-27T02:39:32.839Z,0
2022-09-27T02:40:33.013Z,0
2022-09-27T02:41:32.893Z,0
2022-09-27T02:42:32.405Z,0
2022-09-27T02:43:32.879Z,0
2022-09-27T02:44:32.890Z,0
2022-09-27T02:45:32.849Z,0
2022-09-27T02:46:32.501Z,0
2022-09-27T02:47:32.850Z,0
2022-09-27T02:48:32.864Z,0
2022-09-27T02:49:32.868Z,0
2022-09-27T02:50:32.344Z,0
2022-09-27T02:51:32.862Z,0
2022-09-27T02:52:32.861Z,0
2022-09-27T02:53:32.860Z,0
2022-09-27T02:54:32.364Z,0
2022-09-27T02:55:32.844Z,0
2022-09-27T02:56:32.842Z,0
2022-09-27T02:57:32.866Z,0
2022-09-27T02:58:32.345Z,0
2022-09-27T02:59:32.853Z,0
2022-09-27T03:00:32.875Z,0
2022-09-27T03:01:32.937Z,0
2022-09-27T03:02:32.368Z,0
2022-09-27T03:03:32.867Z,0
2022-09-27T03:04:32.864Z,0
2022-09-27T03:05:32.870Z,0
2022-09-27T03:06:32.287Z,0
2022-09-27T03:07:32.857Z,0
2022-09-27T03:08:32.859Z,0
2022-09-27T03:09:32.882Z,0
2022-09-27T03:10:32.478Z,0
2022-09-27T03:11:33.015Z,0
2022-09-27T03:12:33.045Z,0
2022-09-27T03:13:32.919Z,0
2022-09-27T03:14:32.505Z,0
2022-09-27T03:15:32.944Z,0
2022-09-27T03:16:33.021Z,0
2022-09-27T03:17:32.891Z,0
2022-09-27T03:18:32.503Z,0
2022-09-27T03:19:33.036Z,0
2022-09-27T03:20:32.881Z,0
2022-09-27T03:21:33.022Z,0
2022-09-27T03:22:32.402Z,0
2022-09-27T03:23:33.014Z,0
2022-09-27T03:24:32.874Z,0
2022-09-27T03:25:33.032Z,0
2022-09-27T03:26:32.491Z,0
2022-09-27T03:27:33.004Z,0
2022-09-27T03:28:33.019Z,0
2022-09-27T03:29:32.863Z,0
2022-09-27T03:30:32.531Z,0
2022-09-27T03:31:33.095Z,0
2022-09-27T03:32:33.055Z,0
2022-09-27T03:33:33.035Z,0
2022-09-27T03:34:32.840Z,0
2022-09-27T03:35:32.825Z,0
2022-09-27T03:36:32.880Z,0
2022-09-27T03:37:32.853Z,0
2022-09-27T03:38:32.870Z,0
2022-09-27T03:39:32.826Z,0
2022-09-27T03:40:33.040Z,0
2022-09-27T03:41:32.946Z,0
2022-09-27T03:42:32.422Z,0
2022-09-27T03:43:33.040Z,0
2022-09-27T03:44:32.867Z,0
2022-09-27T03:45:32.874Z,0
2022-09-27T03:46:32.512Z,0
2022-09-27T03:47:32.861Z,0
2022-09-27T03:48:32.871Z,0
2022-09-27T03:49:32.879Z,0
2022-09-27T03:50:32.290Z,0
2022-09-27T03:51:32.865Z,0
2022-09-27T03:52:32.855Z,0
2022-09-27T03:53:32.833Z,0
2022-09-27T03:54:33.008Z,0
2022-09-27T03:55:32.848Z,0
2022-09-27T03:56:32.874Z,0
2022-09-27T03:57:32.856Z,0
2022-09-27T03:58:32.849Z,0
2022-09-27T03:59:32.912Z,0
2022-09-27T04:00:32.866Z,0
2022-09-27T04:01:32.924Z,0
2022-09-27T04:02:32.897Z,0
2022-09-27T04:03:32.845Z,0
2022-09-27T04:04:32.849Z,0
2022-09-27T04:05:32.842Z,0
2022-09-27T04:06:32.964Z,0
2022-09-27T04:07:32.874Z,0
2022-09-27T04:08:32.839Z,0
2022-09-27T04:09:32.919Z,0
2022-09-27T04:10:32.830Z,0
2022-09-27T04:11:32.881Z,0
2022-09-27T04:12:32.861Z,0
2022-09-27T04:13:33.033Z,0
2022-09-27T04:14:32.828Z,0
2022-09-27T04:15:32.853Z,0
2022-09-27T04:16:32.924Z,0
2022-09-27T04:17:32.839Z,0
2022-09-27T04:18:32.836Z,0
2022-09-27T04:19:32.874Z,0
2022-09-27T04:20:32.865Z,0
2022-09-27T04:21:32.849Z,0
2022-09-27T04:22:32.841Z,0
2022-09-27T04:23:32.846Z,0
2022-09-27T04:24:32.859Z,0
2022-09-27T04:25:32.926Z,0
2022-09-27T04:26:32.890Z,0
2022-09-27T04:27:32.866Z,0
2022-09-27T04:28:32.982Z,0
2022-09-27T04:29:32.847Z,0
2022-09-27T04:30:32.892Z,0
2022-09-27T04:31:32.841Z,0
2022-09-27T04:32:32.853Z,0
2022-09-27T04:33:32.944Z,0
2022-09-27T04:34:32.852Z,0
2022-09-27T04:35:32.867Z,0
2022-09-27T04:36:32.860Z,0
2022-09-27T04:37:32.884Z,0
2022-09-27T04:38:32.832Z,0
2022-09-27T04:39:32.889Z,0
2022-09-27T04:40:32.927Z,0
2022-09-27T04:41:32.868Z,0
2022-09-27T04:42:32.750Z,0
2022-09-27T04:43:32.872Z,0
2022-09-27T04:44:32.836Z,0
2022-09-27T04:45:32.886Z,0
2022-09-27T04:46:33.068Z,0
2022-09-27T04:47:32.900Z,0
2022-09-27T04:48:32.860Z,0
2022-09-27T04:49:32.862Z,0.36
2022-09-27T04:50:35.833Z,0
2022-09-27T04:51:32.883Z,0
2022-09-27T04:52:32.831Z,0
2022-09-27T04:53:32.866Z,0
2022-09-27T04:54:32.838Z,1.22
2022-09-27T04:55:32.864Z,0.85
2022-09-27T04:56:32.893Z,0.36
2022-09-27T04:57:32.885Z,1.22
2022-09-27T04:58:32.837Z,1.71
2022-09-27T04:59:32.869Z,1.22
2022-09-27T05:00:32.846Z,1.22
2022-09-27T05:01:32.890Z,2.57
2022-09-27T05:02:32.941Z,2.08
2022-09-27T05:03:32.877Z,2.57
2022-09-27T05:04:32.853Z,2.94
2022-09-27T05:05:32.859Z,3.43
2022-09-27T05:06:32.859Z,3.43
2022-09-27T05:07:32.857Z,3.43
2022-09-27T05:08:32.820Z,3.79
2022-09-27T05:09:32.831Z,4.28
2022-09-27T05:10:32.844Z,2.94
2022-09-27T05:11:32.853Z,3.79
2022-09-27T05:12:32.823Z,3.79
2022-09-27T05:13:32.836Z,2.57
2022-09-27T05:14:32.858Z,2.57
2022-09-27T05:15:32.855Z,2.08
2022-09-27T05:16:34.035Z,2.57
2022-09-27T05:17:32.923Z,2.57
2022-09-27T05:18:32.861Z,2.94
2022-09-27T05:19:32.825Z,3.43
2022-09-27T05:20:32.827Z,3.43
2022-09-27T05:21:32.852Z,2.94
2022-09-27T05:22:32.848Z,2.94
2022-09-27T05:23:32.999Z,3.79
2022-09-27T05:24:32.858Z,4.28
2022-09-27T05:25:32.841Z,5.14
2022-09-27T05:26:32.842Z,6.48
2022-09-27T05:27:32.853Z,5.99
2022-09-27T05:28:32.842Z,6.48
2022-09-27T05:29:32.856Z,6.48
2022-09-27T05:30:32.935Z,6.85
2022-09-27T05:31:32.846Z,7.7
2022-09-27T05:32:32.890Z,7.7
2022-09-27T05:33:32.881Z,8.19
2022-09-27T05:34:32.889Z,9.54
2022-09-27T05:35:32.843Z,10.39
2022-09-27T05:36:32.836Z,11.25
2022-09-27T05:37:32.836Z,11.62
2022-09-27T05:38:32.864Z,12.48
2022-09-27T05:39:32.837Z,12.97
2022-09-27T05:40:41.276Z,12.48
2022-09-27T05:41:33.071Z,13.33
2022-09-27T05:42:32.937Z,14.31
2022-09-27T05:43:32.862Z,14.31
2022-09-27T05:44:32.952Z,13.82
2022-09-27T05:45:32.917Z,14.31
2022-09-27T05:46:33.918Z,14.31
2022-09-27T05:47:32.846Z,15.17
2022-09-27T05:48:32.888Z,14.31
2022-09-27T05:49:32.839Z,15.53
2022-09-27T05:50:32.850Z,16.39
2022-09-27T05:51:32.878Z,16.88
2022-09-27T05:52:32.846Z,17.25
2022-09-27T05:53:32.860Z,17.25
2022-09-27T05:54:32.834Z,18.11
2022-09-27T05:55:32.842Z,19.08
2022-09-27T05:56:32.851Z,19.45
2022-09-27T05:57:32.830Z,19.94
2022-09-27T05:58:32.817Z,19.94
2022-09-27T05:59:32.859Z,20.31
2022-09-27T06:00:32.912Z,20.8
2022-09-27T06:01:32.848Z,21.16
2022-09-27T06:02:32.883Z,22.02
2022-09-27T06:03:32.844Z,22.87
2022-09-27T06:04:32.843Z,23.36
2022-09-27T06:05:32.922Z,22.51
2022-09-27T06:06:32.848Z,23.85
2022-09-27T06:07:32.847Z,23.85
2022-09-27T06:08:32.827Z,23.85
2022-09-27T06:09:32.863Z,24.22
2022-09-27T06:10:32.928Z,24.71
2022-09-27T06:11:32.859Z,24.71
2022-09-27T06:12:32.830Z,25.07
2022-09-27T06:13:32.801Z,25.07
2022-09-27T06:14:32.853Z,24.22
2022-09-27T06:15:32.869Z,25.07
2022-09-27T06:16:32.885Z,25.56
2022-09-27T06:17:33.015Z,24.71
2022-09-27T06:18:32.822Z,25.56
2022-09-27T06:19:32.897Z,25.07
2022-09-27T06:20:32.974Z,25.07
2022-09-27T06:21:32.817Z,25.07
2022-09-27T06:22:32.860Z,25.56
2022-09-27T06:23:32.837Z,25.56
2022-09-27T06:24:32.913Z,25.94
2022-09-27T06:25:32.844Z,26.42
2022-09-27T06:26:32.845Z,25.94
2022-09-27T06:27:32.841Z,26.79
2022-09-27T06:28:32.854Z,27.28
2022-09-27T06:29:32.846Z,27.28
2022-09-27T06:30:32.868Z,26.79
2022-09-27T06:31:32.899Z,27.65
2022-09-27T06:32:32.896Z,28.99
2022-09-27T06:33:32.993Z,29.48
2022-09-27T06:34:32.882Z,29.48
2022-09-27T06:35:32.849Z,29.48
2022-09-27T06:36:32.873Z,30.34
2022-09-27T06:37:32.813Z,30.34
2022-09-27T06:38:33.002Z,31.56
2022-09-27T06:39:32.837Z,31.56
2022-09-27T06:40:32.892Z,31.56
2022-09-27T06:41:32.832Z,32.42
2022-09-27T06:42:32.829Z,32.9
2022-09-27T06:43:32.858Z,33.39
2022-09-27T06:44:32.830Z,34.62
2022-09-27T06:45:32.843Z,37.68
2022-09-27T06:46:32.842Z,38.17
2022-09-27T06:47:32.953Z,39.02
2022-09-27T06:48:32.848Z,40.24
2022-09-27T06:49:32.916Z,40.73
2022-09-27T06:50:32.847Z,41.96
2022-09-27T06:51:32.868Z,38.53
2022-09-27T06:52:32.850Z,39.88
2022-09-27T06:53:32.843Z,39.39
2022-09-27T06:54:32.845Z,42.45
2022-09-27T06:55:32.860Z,42.45
2022-09-27T06:56:32.868Z,44.65
2022-09-27T06:57:32.814Z,49.42
2022-09-27T06:58:32.817Z,51.99
2022-09-27T06:59:32.825Z,52.85
2022-09-27T07:00:32.854Z,55.05
2022-09-27T07:01:33.081Z,55.9
2022-09-27T07:02:32.874Z,55.41
2022-09-27T07:03:36.589Z,55.9
2022-09-27T07:04:32.863Z,52.85
2022-09-27T07:05:32.825Z,52.85
2022-09-27T07:06:32.817Z,51.5
2022-09-27T07:07:32.844Z,51.5
2022-09-27T07:08:32.903Z,50.28
2022-09-27T07:09:32.818Z,46.73
2022-09-27T07:10:32.844Z,47.71
2022-09-27T07:11:32.859Z,50.28
2022-09-27T07:12:32.835Z,52.48
2022-09-27T07:13:32.847Z,54.56
2022-09-27T07:14:32.861Z,58.11
2022-09-27T07:15:32.842Z,61.53
2022-09-27T07:16:32.891Z,65.94
2022-09-27T07:17:32.804Z,67.65
2022-09-27T07:18:32.915Z,68.51
2022-09-27T07:19:32.864Z,68.51
2022-09-27T07:20:32.861Z,68.51
2022-09-27T07:21:32.813Z,63.24
2022-09-27T07:22:32.836Z,56.76
2022-09-27T07:23:32.833Z,55.41
2022-09-27T07:24:32.865Z,58.11
2022-09-27T07:25:32.821Z,57.25
2022-09-27T07:26:32.847Z,60.19
2022-09-27T07:27:32.849Z,63.24
2022-09-27T07:28:32.863Z,62.88
2022-09-27T07:29:32.861Z,65.94
2022-09-27T07:30:32.887Z,66.8
2022-09-27T07:31:32.842Z,68.51
2022-09-27T07:32:32.898Z,70.71
2022-09-27T07:33:32.857Z,71.07
2022-09-27T07:34:32.844Z,63.24
2022-09-27T07:35:32.858Z,64.1
2022-09-27T07:36:32.795Z,54.19
2022-09-27T07:37:32.830Z,49.42
2022-09-27T07:38:32.847Z,46.36
2022-09-27T07:39:32.857Z,46.73
2022-09-27T07:40:32.862Z,46.36
2022-09-27T07:41:32.842Z,39.02
2022-09-27T07:42:34.400Z,36.33
2022-09-27T07:43:32.829Z,41.59
2022-09-27T07:44:32.840Z,38.53
2022-09-27T07:45:33.033Z,35.11
2022-09-27T07:46:32.846Z,37.68
2022-09-27T07:47:32.835Z,33.39
2022-09-27T07:48:32.818Z,32.42
2022-09-27T07:49:32.846Z,33.76
2022-09-27T07:50:32.832Z,34.62
2022-09-27T07:51:32.871Z,36.33
2022-09-27T07:52:32.836Z,37.68
2022-09-27T07:53:32.840Z,44.16
2022-09-27T07:54:32.824Z,39.39
2022-09-27T07:55:32.848Z,41.1
2022-09-27T07:56:32.794Z,39.02
2022-09-27T07:57:32.866Z,36.33
2022-09-27T07:58:32.990Z,32.9
2022-09-27T07:59:32.835Z,28.63
2022-09-27T08:00:32.832Z,29.48
2022-09-27T08:01:32.876Z,25.94
2022-09-27T08:02:32.934Z,25.56
2022-09-27T08:03:32.833Z,25.07
2022-09-27T08:04:32.838Z,22.87
2022-09-27T08:05:32.807Z,22.02
2022-09-27T08:06:32.811Z,21.65
2022-09-27T08:07:32.851Z,21.16
2022-09-27T08:08:32.826Z,20.8
2022-09-27T08:09:32.858Z,20.31
2022-09-27T08:10:32.853Z,21.65
2022-09-27T08:11:32.862Z,19.94
2022-09-27T08:12:32.801Z,21.16
2022-09-27T08:13:32.828Z,20.31
2022-09-27T08:14:33.600Z,21.65
2022-09-27T08:15:32.828Z,21.16
2022-09-27T08:16:32.870Z,22.51
2022-09-27T08:17:32.835Z,20.31
2022-09-27T08:18:32.832Z,19.08
2022-09-27T08:19:32.876Z,19.94
2022-09-27T08:20:32.844Z,19.94
2022-09-27T08:21:32.841Z,20.8
2022-09-27T08:22:32.865Z,20.8
2022-09-27T08:23:33.039Z,19.45
2022-09-27T08:24:32.834Z,20.31
2022-09-27T08:25:32.859Z,19.08
2022-09-27T08:26:32.843Z,18.11
2022-09-27T08:27:32.855Z,19.45
2022-09-27T08:28:32.814Z,19.94
2022-09-27T08:29:32.843Z,19.45
2022-09-27T08:30:32.858Z,20.8
2022-09-27T08:31:32.863Z,21.16
2022-09-27T08:32:32.814Z,22.02
2022-09-27T08:33:35.791Z,22.02
2022-09-27T08:34:32.837Z,24.22
2022-09-27T08:35:32.825Z,25.07
2022-09-27T08:36:32.835Z,27.28
2022-09-27T08:37:32.843Z,29.48
2022-09-27T08:38:32.835Z,33.76
2022-09-27T08:39:32.829Z,35.11
2022-09-27T08:40:32.870Z,35.11
2022-09-27T08:41:32.829Z,35.48
2022-09-27T08:42:32.858Z,40.73
2022-09-27T08:43:32.826Z,43.31
2022-09-27T08:44:32.965Z,45.87
2022-09-27T08:45:32.864Z,45.02
2022-09-27T08:46:32.843Z,45.02
2022-09-27T08:47:32.842Z,48.07
2022-09-27T08:48:32.829Z,48.07
2022-09-27T08:49:32.862Z,59.82
2022-09-27T08:50:36.136Z,55.05
2022-09-27T08:51:32.813Z,53.7
2022-09-27T08:52:32.805Z,55.41
2022-09-27T08:53:32.894Z,55.41
2022-09-27T08:54:32.821Z,56.27
2022-09-27T08:55:32.854Z,57.25
2022-09-27T08:56:32.835Z,61.17
2022-09-27T08:57:32.896Z,53.7
2022-09-27T08:58:32.831Z,52.48
2022-09-27T08:59:32.913Z,53.7
2022-09-27T09:00:32.813Z,48.93
2022-09-27T09:01:32.878Z,40.24
2022-09-27T09:02:32.854Z,39.39
2022-09-27T09:03:32.849Z,39.39
2022-09-27T09:04:32.806Z,39.39
2022-09-27T09:05:32.835Z,39.39
2022-09-27T09:06:32.832Z,37.68
2022-09-27T09:07:32.835Z,36.82
2022-09-27T09:08:32.807Z,41.59
2022-09-27T09:09:32.823Z,45.51
2022-09-27T09:10:32.838Z,45.87
2022-09-27T09:11:32.821Z,48.07
2022-09-27T09:12:32.836Z,49.42
2022-09-27T09:13:32.965Z,51.5
2022-09-27T09:14:32.814Z,53.7
2022-09-27T09:15:32.831Z,56.27
2022-09-27T09:16:32.870Z,59.82
2022-09-27T09:17:32.825Z,65.94
2022-09-27T09:18:33.204Z,71.07
2022-09-27T09:19:32.869Z,71.93
2022-09-27T09:20:32.825Z,72.79
2022-09-27T09:21:32.833Z,68.51
2022-09-27T09:22:32.832Z,71.07
2022-09-27T09:23:32.831Z,74.14
2022-09-27T09:24:32.947Z,70.71
2022-09-27T09:25:32.834Z,66.31
2022-09-27T09:26:32.840Z,80.62
2022-09-27T09:27:32.864Z,84.04
2022-09-27T09:28:32.796Z,89.79
2022-09-27T09:29:32.824Z,93.58
2022-09-27T09:30:32.883Z,89.79
2022-09-27T09:31:32.901Z,87.1
2022-09-27T09:32:32.818Z,74.14
2022-09-27T09:33:32.845Z,68.51
2022-09-27T09:34:32.827Z,60.68
2022-09-27T09:35:32.870Z,51.14
2022-09-27T09:36:32.781Z,47.22
2022-09-27T09:37:32.832Z,45.51
2022-09-27T09:38:32.813Z,48.07
2022-09-27T09:39:32.824Z,47.71
2022-09-27T09:40:32.880Z,65.45
2022-09-27T09:41:32.843Z,92.73
2022-09-27T09:42:32.840Z,85.88
2022-09-27T09:43:32.855Z,74.14
2022-09-27T09:44:32.820Z,56.27
2022-09-27T09:45:32.989Z,45.02
2022-09-27T09:46:32.812Z,26.79
2022-09-27T09:47:32.833Z,24.22
2022-09-27T09:48:32.801Z,20.31
2022-09-27T09:49:32.819Z,16.88
2022-09-27T09:50:32.798Z,14.68
2022-09-27T09:51:32.817Z,15.17
2022-09-27T09:52:32.826Z,13.82
2022-09-27T09:53:32.829Z,13.33
2022-09-27T09:54:32.829Z,11.62
2022-09-27T09:55:32.843Z,12.11
2022-09-27T09:56:32.881Z,11.25
2022-09-27T09:57:32.812Z,10.77
2022-09-27T09:58:32.900Z,13.82
2022-09-27T09:59:32.806Z,11.62
2022-09-27T10:00:32.811Z,17.25
2022-09-27T10:01:32.800Z,19.45
2022-09-27T10:02:32.950Z,17.73
2022-09-27T10:03:32.806Z,14.68
2022-09-27T10:04:32.856Z,12.48
2022-09-27T10:05:32.825Z,11.62
2022-09-27T10:06:32.847Z,13.33
2022-09-27T10:07:32.816Z,13.33
2022-09-27T10:08:32.855Z,9.05
2022-09-27T10:09:32.840Z,8.19
2022-09-27T10:10:32.849Z,4.77
2022-09-27T10:11:32.911Z,5.14
2022-09-27T10:12:32.838Z,6.48
2022-09-27T10:13:32.912Z,8.56
2022-09-27T10:14:32.833Z,13.82
2022-09-27T10:15:32.939Z,19.08
2022-09-27T10:16:32.926Z,25.56
2022-09-27T10:17:32.836Z,27.28
2022-09-27T10:18:32.842Z,28.14
2022-09-27T10:19:32.842Z,23.36
2022-09-27T10:20:33.012Z,19.45
2022-09-27T10:21:32.902Z,15.53
2022-09-27T10:22:32.856Z,13.82
2022-09-27T10:23:32.810Z,21.65
2022-09-27T10:24:32.804Z,48.07
2022-09-27T10:25:32.799Z,62.88
2022-09-27T10:26:32.815Z,66.31
2022-09-27T10:27:32.844Z,69.73
2022-09-27T10:28:32.813Z,81.1
2022-09-27T10:29:37.291Z,84.53
2022-09-27T10:30:32.941Z,87.59
2022-09-27T10:31:32.901Z,86.24
2022-09-27T10:32:32.823Z,86.24
2022-09-27T10:33:32.841Z,85.39
2022-09-27T10:34:32.869Z,86.73
2022-09-27T10:35:32.840Z,88.82
2022-09-27T10:36:32.827Z,87.96
2022-09-27T10:37:32.830Z,85.88
2022-09-27T10:38:32.817Z,82.33
2022-09-27T10:39:32.832Z,82.33
2022-09-27T10:40:32.884Z,69.73
2022-09-27T10:41:32.862Z,58.48
2022-09-27T10:42:32.846Z,55.9
2022-09-27T10:43:32.840Z,57.25
2022-09-27T10:44:32.823Z,47.22
2022-09-27T10:45:32.899Z,41.59
2022-09-27T10:46:32.783Z,51.99
2022-09-27T10:47:32.811Z,50.65
2022-09-27T10:48:32.819Z,50.28
2022-09-27T10:49:32.851Z,39.02
2022-09-27T10:50:49.469Z,32.05
2022-09-27T10:51:32.913Z,35.48
2022-09-27T10:52:32.827Z,35.97
2022-09-27T10:53:32.831Z,32.42
2022-09-27T10:54:32.811Z,26.79
2022-09-27T10:55:32.956Z,16.02
2022-09-27T10:56:32.824Z,16.39
2022-09-27T10:57:32.815Z,23.36
2022-09-27T10:58:32.807Z,27.28
2022-09-27T10:59:32.838Z,31.56
2022-09-27T11:00:32.863Z,22.51
2022-09-27T11:01:32.886Z,21.65
2022-09-27T11:02:32.813Z,26.42
2022-09-27T11:03:32.805Z,29.48
2022-09-27T11:04:32.880Z,33.76
2022-09-27T11:05:32.872Z,28.99
2022-09-27T11:06:32.795Z,31.19
2022-09-27T11:07:32.852Z,23.85
2022-09-27T11:08:32.819Z,28.14
2022-09-27T11:09:32.827Z,25.94
2022-09-27T11:10:37.006Z,34.25
2022-09-27T11:11:32.823Z,39.88
2022-09-27T11:12:32.854Z,36.82
2022-09-27T11:13:32.820Z,39.39
2022-09-27T11:14:32.875Z,25.56
2022-09-27T11:15:32.844Z,23.36
2022-09-27T11:16:32.861Z,19.45
2022-09-27T11:17:32.832Z,13.33
2022-09-27T11:18:32.809Z,20.8
2022-09-27T11:19:32.887Z,21.16
2022-09-27T11:20:32.942Z,20.31
2022-09-27T11:21:32.938Z,36.33
2022-09-27T11:22:32.771Z,33.39
2022-09-27T11:23:32.880Z,41.59
2022-09-27T11:24:32.845Z,46.36
2022-09-27T11:25:32.813Z,50.28
2022-09-27T11:26:32.776Z,51.14
2022-09-27T11:27:32.890Z,55.05
2022-09-27T11:28:32.873Z,44.16
2022-09-27T11:29:32.823Z,39.39
2022-09-27T11:30:32.802Z,38.17
2022-09-27T11:31:33.076Z,35.97
2022-09-27T11:32:32.806Z,28.14
2022-09-27T11:33:32.772Z,25.56
2022-09-27T11:34:32.801Z,26.42
2022-09-27T11:35:32.840Z,25.07
2022-09-27T11:36:32.821Z,31.19
2022-09-27T11:37:32.888Z,37.19
2022-09-27T11:38:51.007Z,45.87
2022-09-27T11:39:32.860Z,49.79
2022-09-27T11:40:32.902Z,56.76
2022-09-27T11:41:32.826Z,71.07
2022-09-27T11:42:32.797Z,58.48
2022-09-27T11:43:32.818Z,59.82
2022-09-27T11:44:32.805Z,60.19
2022-09-27T11:45:50.252Z,66.8
2022-09-27T11:46:40.282Z,54.56
2022-09-27T11:47:32.986Z,68.87
2022-09-27T11:48:32.842Z,63.24
2022-09-27T11:49:32.830Z,64.96
2022-09-27T11:50:32.831Z,59.33
2022-09-27T11:51:32.833Z,64.1
2022-09-27T11:52:32.855Z,68.87
2022-09-27T11:53:32.808Z,84.53
2022-09-27T11:54:32.810Z,73.65
2022-09-27T11:55:32.808Z,58.11
2022-09-27T11:56:32.790Z,69.73
2022-09-27T11:57:32.830Z,70.71
2022-09-27T11:58:32.794Z,66.31
2022-09-27T11:59:32.907Z,61.53
2022-09-27T12:00:32.803Z,63.73
2022-09-27T12:01:32.886Z,65.45
2022-09-27T12:02:32.894Z,70.22
2022-09-27T12:03:32.817Z,70.71
2022-09-27T12:04:32.819Z,71.56
2022-09-27T12:05:32.819Z,79.27
2022-09-27T12:06:32.783Z,64.59
2022-09-27T12:07:32.784Z,65.45
2022-09-27T12:08:32.811Z,64.1
2022-09-27T12:09:32.831Z,62.88
2022-09-27T12:10:32.806Z,60.68
2022-09-27T12:11:32.848Z,55.41
2022-09-27T12:12:32.819Z,60.19
2022-09-27T12:13:32.927Z,58.11
2022-09-27T12:14:32.806Z,55.41
2022-09-27T12:15:32.873Z,55.9
2022-09-27T12:16:32.813Z,55.05
2022-09-27T12:17:32.778Z,54.19
2022-09-27T12:18:32.938Z,59.82
2022-09-27T12:19:32.896Z,60.68
2022-09-27T12:20:32.827Z,69.73
2022-09-27T12:21:32.862Z,55.41
2022-09-27T12:22:57.006Z,68.51
2022-09-27T12:23:36.674Z,65.94
2022-09-27T12:24:32.820Z,52.85
2022-09-27T12:25:32.827Z,57.25
2022-09-27T12:26:32.812Z,42.94
2022-09-27T12:27:32.808Z,41.96
2022-09-27T12:28:32.821Z,40.73
2022-09-27T12:29:32.799Z,46.36
2022-09-27T12:30:32.791Z,51.5
2022-09-27T12:31:32.895Z,55.05
2022-09-27T12:32:32.813Z,55.9
2022-09-27T12:33:32.879Z,43.31
2022-09-27T12:34:32.814Z,62.39
2022-09-27T12:35:32.777Z,58.48
2022-09-27T12:36:37.393Z,62.39
2022-09-27T12:37:32.797Z,66.31
2022-09-27T12:38:32.816Z,74.5
2022-09-27T12:39:32.804Z,67.65
2022-09-27T12:40:32.934Z,86.73
2022-09-27T12:41:32.937Z,73.28
2022-09-27T12:42:32.823Z,60.68
2022-09-27T12:43:32.801Z,73.65
2022-09-27T12:44:32.807Z,60.68
2022-09-27T12:45:32.806Z,66.8
2022-09-27T12:46:32.877Z,75.85
2022-09-27T12:47:32.795Z,68.02
2022-09-27T12:48:32.825Z,81.48
2022-09-27T12:49:32.813Z,76.7
2022-09-27T12:50:32.824Z,84.53
2022-09-27T12:51:32.803Z,85.39
2022-09-27T12:52:32.840Z,85.88
2022-09-27T12:53:32.822Z,78.9
2022-09-27T12:54:32.811Z,79.76
2022-09-27T12:55:32.780Z,73.28
2022-09-27T12:56:32.807Z,70.22
2022-09-27T12:57:32.833Z,78.41
2022-09-27T12:58:32.820Z,72.79
2022-09-27T12:59:32.805Z,62.02
2022-09-27T13:00:32.793Z,59.82
2022-09-27T13:01:33.087Z,69.36
2022-09-27T13:02:32.869Z,60.19
2022-09-27T13:03:32.800Z,68.87
2022-09-27T13:04:33.041Z,82.82
2022-09-27T13:05:32.814Z,85.88
2022-09-27T13:06:32.803Z,72.79
2022-09-27T13:07:33.087Z,58.11
2022-09-27T13:08:32.816Z,63.73
2022-09-27T13:09:32.897Z,64.59
2022-09-27T13:10:32.793Z,64.1
2022-09-27T13:11:32.791Z,66.31
2022-09-27T13:12:32.809Z,58.48
2022-09-27T13:13:36.416Z,57.25
2022-09-27T13:14:32.875Z,61.17
2022-09-27T13:15:32.777Z,51.5
2022-09-27T13:16:32.834Z,45.51
2022-09-27T13:17:32.822Z,52.48
2022-09-27T13:18:32.806Z,55.05
2022-09-27T13:19:32.812Z,55.9
2022-09-27T13:20:32.819Z,48.56
2022-09-27T13:21:32.888Z,43.8
2022-09-27T13:22:32.815Z,60.19
2022-09-27T13:23:32.863Z,72.42
2022-09-27T13:24:32.889Z,60.68
2022-09-27T13:25:32.775Z,48.07
2022-09-27T13:26:32.791Z,49.42
2022-09-27T13:27:32.778Z,43.31
2022-09-27T13:28:32.821Z,45.87
2022-09-27T13:29:32.946Z,39.88
2022-09-27T13:30:32.790Z,39.39
2022-09-27T13:31:32.835Z,35.48
2022-09-27T13:32:32.789Z,40.73
2022-09-27T13:33:32.730Z,51.5